sensor_id;sensor_type;location;lat;lon;timestamp;pressure;altitude;pressure_sealevel;temperature;humidity
50636;BME280;36598;46.054;11.130;2023-04-04T00:01:31;99043.63;;;10.24;20.49
50636;BME280;36598;46.054;11.130;2023-04-04T00:03:56;99043.69;;;10.20;21.23
50636;BME280;36598;46.054;11.130;2023-04-04T00:06:21;99040.31;;;10.06;21.39
50636;BME280;36598;46.054;11.130;2023-04-04T00:08:46;99040.69;;;10.08;20.85
50636;BME280;36598;46.054;11.130;2023-04-04T00:11:12;99050.69;;;9.98;21.26
50636;BME280;36598;46.054;11.130;2023-04-04T00:13:38;99041.19;;;9.99;21.34
50636;BME280;36598;46.054;11.130;2023-04-04T00:16:03;99044.22;;;10.08;21.51
50636;BME280;36598;46.054;11.130;2023-04-04T00:18:29;99039.44;;;10.12;21.51
50636;BME280;36598;46.054;11.130;2023-04-04T00:20:54;99038.75;;;10.04;20.75
50636;BME280;36598;46.054;11.130;2023-04-04T00:23:20;99032.94;;;9.95;21.09
50636;BME280;36598;46.054;11.130;2023-04-04T00:25:51;99021.94;;;9.92;21.25
50636;BME280;36598;46.054;11.130;2023-04-04T00:28:19;99036.28;;;9.79;21.53
50636;BME280;36598;46.054;11.130;2023-04-04T00:30:45;99023.69;;;9.78;21.24
50636;BME280;36598;46.054;11.130;2023-04-04T00:33:14;99011.38;;;9.83;21.52
50636;BME280;36598;46.054;11.130;2023-04-04T00:35:39;99023.97;;;9.88;20.74
50636;BME280;36598;46.054;11.130;2023-04-04T00:38:05;99006.31;;;9.78;20.68
50636;BME280;36598;46.054;11.130;2023-04-04T00:40:30;99010.19;;;9.84;21.11
50636;BME280;36598;46.054;11.130;2023-04-04T00:42:56;99027.19;;;9.48;21.67
50636;BME280;36598;46.054;11.130;2023-04-04T00:45:23;99026.69;;;9.57;21.43
50636;BME280;36598;46.054;11.130;2023-04-04T00:47:49;99031.19;;;9.78;21.41
50636;BME280;36598;46.054;11.130;2023-04-04T00:50:14;99011.97;;;9.67;21.34
50636;BME280;36598;46.054;11.130;2023-04-04T00:52:41;99012.81;;;9.64;21.52
50636;BME280;36598;46.054;11.130;2023-04-04T00:55:07;99019.44;;;9.70;21.24
50636;BME280;36598;46.054;11.130;2023-04-04T00:57:32;99016.94;;;9.79;21.23
50636;BME280;36598;46.054;11.130;2023-04-04T00:59:58;99013.13;;;9.70;21.08
50636;BME280;36598;46.054;11.130;2023-04-04T01:02:24;99017.00;;;9.76;21.04
50636;BME280;36598;46.054;11.130;2023-04-04T01:04:50;99019.00;;;9.72;21.56
50636;BME280;36598;46.054;11.130;2023-04-04T01:07:16;99022.63;;;9.69;21.07
50636;BME280;36598;46.054;11.130;2023-04-04T01:09:41;99011.41;;;9.79;21.43
50636;BME280;36598;46.054;11.130;2023-04-04T01:12:07;99009.78;;;9.86;20.97
50636;BME280;36598;46.054;11.130;2023-04-04T01:14:32;99023.72;;;9.75;21.29
50636;BME280;36598;46.054;11.130;2023-04-04T01:16:57;99020.75;;;9.59;21.84
50636;BME280;36598;46.054;11.130;2023-04-04T01:19:27;99013.34;;;9.52;21.84
50636;BME280;36598;46.054;11.130;2023-04-04T01:21:53;99021.91;;;9.61;21.65
50636;BME280;36598;46.054;11.130;2023-04-04T01:24:21;99011.59;;;9.65;20.67
50636;BME280;36598;46.054;11.130;2023-04-04T01:26:48;99007.91;;;9.75;21.36
50636;BME280;36598;46.054;11.130;2023-04-04T01:29:14;99014.81;;;9.60;20.82
50636;BME280;36598;46.054;11.130;2023-04-04T01:31:40;99024.38;;;9.52;21.33
50636;BME280;36598;46.054;11.130;2023-04-04T01:39:31;99022.97;;;9.37;21.75
50636;BME280;36598;46.054;11.130;2023-04-04T01:41:57;99022.50;;;9.42;22.11
50636;BME280;36598;46.054;11.130;2023-04-04T01:44:23;99018.56;;;9.43;22.19
50636;BME280;36598;46.054;11.130;2023-04-04T01:46:52;99023.34;;;9.39;21.03
50636;BME280;36598;46.054;11.130;2023-04-04T01:49:18;99021.41;;;9.36;21.16
50636;BME280;36598;46.054;11.130;2023-04-04T01:51:44;99038.66;;;9.47;22.01
50636;BME280;36598;46.054;11.130;2023-04-04T01:54:10;99028.03;;;9.42;21.92
50636;BME280;36598;46.054;11.130;2023-04-04T01:56:36;99027.34;;;9.34;21.82
50636;BME280;36598;46.054;11.130;2023-04-04T01:59:01;99030.13;;;9.34;22.14
50636;BME280;36598;46.054;11.130;2023-04-04T02:01:26;99030.50;;;9.33;21.72
50636;BME280;36598;46.054;11.130;2023-04-04T02:03:52;99023.81;;;9.34;21.69
50636;BME280;36598;46.054;11.130;2023-04-04T02:06:17;99030.78;;;9.42;21.87
50636;BME280;36598;46.054;11.130;2023-04-04T02:08:43;99027.59;;;9.47;21.59
50636;BME280;36598;46.054;11.130;2023-04-04T02:11:08;99027.59;;;9.47;21.39
50636;BME280;36598;46.054;11.130;2023-04-04T02:13:33;99040.38;;;9.34;21.17
50636;BME280;36598;46.054;11.130;2023-04-04T02:15:58;99032.50;;;9.28;21.57
50636;BME280;36598;46.054;11.130;2023-04-04T02:18:24;99025.41;;;9.31;21.83
50636;BME280;36598;46.054;11.130;2023-04-04T02:20:55;99029.38;;;9.30;21.93
50636;BME280;36598;46.054;11.130;2023-04-04T02:23:21;99018.34;;;9.26;22.09
50636;BME280;36598;46.054;11.130;2023-04-04T02:25:48;99037.72;;;9.23;21.65
50636;BME280;36598;46.054;11.130;2023-04-04T02:28:14;99028.66;;;9.22;21.25
50636;BME280;36598;46.054;11.130;2023-04-04T02:30:39;99019.16;;;9.23;21.41
50636;BME280;36598;46.054;11.130;2023-04-04T02:33:04;99024.72;;;9.20;21.21
50636;BME280;36598;46.054;11.130;2023-04-04T02:35:30;99022.53;;;9.04;21.55
50636;BME280;36598;46.054;11.130;2023-04-04T02:37:55;99017.00;;;9.04;21.82
50636;BME280;36598;46.054;11.130;2023-04-04T02:40:20;99019.06;;;8.93;21.74
50636;BME280;36598;46.054;11.130;2023-04-04T02:42:46;99022.56;;;8.97;21.40
50636;BME280;36598;46.054;11.130;2023-04-04T02:45:11;99036.84;;;8.88;22.22
50636;BME280;36598;46.054;11.130;2023-04-04T02:47:38;99026.63;;;8.85;21.96
50636;BME280;36598;46.054;11.130;2023-04-04T02:50:03;99023.84;;;8.85;21.75
50636;BME280;36598;46.054;11.130;2023-04-04T02:52:29;99027.69;;;8.98;21.54
50636;BME280;36598;46.054;11.130;2023-04-04T02:54:55;99019.03;;;8.96;21.82
50636;BME280;36598;46.054;11.130;2023-04-04T02:57:20;99020.94;;;9.03;21.65
50636;BME280;36598;46.054;11.130;2023-04-04T02:59:45;99019.03;;;8.48;21.60
50636;BME280;36598;46.054;11.130;2023-04-04T03:02:11;99025.50;;;8.79;21.55
50636;BME280;36598;46.054;11.130;2023-04-04T03:04:36;99035.78;;;8.75;22.20
50636;BME280;36598;46.054;11.130;2023-04-04T03:07:01;99033.78;;;8.79;22.20
50636;BME280;36598;46.054;11.130;2023-04-04T03:09:27;99028.25;;;8.79;21.91
50636;BME280;36598;46.054;11.130;2023-04-04T03:11:53;99029.09;;;8.72;21.84
50636;BME280;36598;46.054;11.130;2023-04-04T03:14:18;99025.78;;;8.40;21.33
50636;BME280;36598;46.054;11.130;2023-04-04T03:16:44;99024.47;;;8.59;21.88
50636;BME280;36598;46.054;11.130;2023-04-04T03:19:09;99039.03;;;8.59;21.64
50636;BME280;36598;46.054;11.130;2023-04-04T03:21:34;99023.38;;;8.45;21.51
50636;BME280;36598;46.054;11.130;2023-04-04T03:24:00;99022.94;;;8.54;21.83
50636;BME280;36598;46.054;11.130;2023-04-04T03:26:25;99022.97;;;8.47;21.47
50636;BME280;36598;46.054;11.130;2023-04-04T03:28:52;99019.44;;;8.43;21.45
50636;BME280;36598;46.054;11.130;2023-04-04T03:31:17;99021.72;;;8.59;21.37
50636;BME280;36598;46.054;11.130;2023-04-04T03:33:42;99018.94;;;8.62;21.71
50636;BME280;36598;46.054;11.130;2023-04-04T03:36:11;99033.09;;;8.64;20.96
50636;BME280;36598;46.054;11.130;2023-04-04T03:38:37;99027.59;;;8.61;21.12
50636;BME280;36598;46.054;11.130;2023-04-04T03:41:03;99028.31;;;8.68;21.50
50636;BME280;36598;46.054;11.130;2023-04-04T03:43:29;99022.13;;;8.57;20.96
50636;BME280;36598;46.054;11.130;2023-04-04T03:45:58;99024.78;;;8.68;20.82
50636;BME280;36598;46.054;11.130;2023-04-04T03:48:23;99015.38;;;8.65;20.67
50636;BME280;36598;46.054;11.130;2023-04-04T03:50:49;99018.13;;;8.65;20.53
50636;BME280;36598;46.054;11.130;2023-04-04T03:53:14;99025.56;;;8.68;20.97
50636;BME280;36598;46.054;11.130;2023-04-04T03:55:40;99014.97;;;8.63;21.27
50636;BME280;36598;46.054;11.130;2023-04-04T03:58:06;99027.16;;;8.69;21.20
50636;BME280;36598;46.054;11.130;2023-04-04T04:03:06;99028.03;;;8.52;21.07
50636;BME280;36598;46.054;11.130;2023-04-04T04:05:32;99025.41;;;8.38;21.25
50636;BME280;36598;46.054;11.130;2023-04-04T04:07:57;99033.53;;;8.56;21.10
50636;BME280;36598;46.054;11.130;2023-04-04T04:10:22;99022.13;;;8.53;21.36
50636;BME280;36598;46.054;11.130;2023-04-04T04:12:47;99033.09;;;8.61;20.94
50636;BME280;36598;46.054;11.130;2023-04-04T04:15:13;99034.00;;;8.47;21.33
50636;BME280;36598;46.054;11.130;2023-04-04T04:17:39;99023.03;;;8.40;20.54
50636;BME280;36598;46.054;11.130;2023-04-04T04:20:05;99029.63;;;8.53;21.18
50636;BME280;36598;46.054;11.130;2023-04-04T04:22:30;99026.47;;;8.51;20.56
50636;BME280;36598;46.054;11.130;2023-04-04T04:24:55;99032.41;;;8.53;21.28
50636;BME280;36598;46.054;11.130;2023-04-04T04:27:21;99040.28;;;8.51;21.25
50636;BME280;36598;46.054;11.130;2023-04-04T04:29:47;99034.44;;;8.42;21.01
50636;BME280;36598;46.054;11.130;2023-04-04T04:32:16;99039.91;;;8.49;21.42
50636;BME280;36598;46.054;11.130;2023-04-04T04:34:41;99044.66;;;8.45;20.64
50636;BME280;36598;46.054;11.130;2023-04-04T04:37:07;99038.03;;;8.32;21.07
50636;BME280;36598;46.054;11.130;2023-04-04T04:39:32;99047.44;;;8.31;21.38
50636;BME280;36598;46.054;11.130;2023-04-04T04:41:58;99040.44;;;8.22;21.34
50636;BME280;36598;46.054;11.130;2023-04-04T04:44:23;99054.25;;;8.15;21.31
50636;BME280;36598;46.054;11.130;2023-04-04T04:46:49;99041.97;;;8.27;20.33
50636;BME280;36598;46.054;11.130;2023-04-04T04:49:14;99044.34;;;8.25;20.90
50636;BME280;36598;46.054;11.130;2023-04-04T04:51:39;99052.25;;;8.19;21.05
50636;BME280;36598;46.054;11.130;2023-04-04T04:54:06;99049.03;;;8.32;20.93
50636;BME280;36598;46.054;11.130;2023-04-04T04:56:31;99049.50;;;8.23;20.62
50636;BME280;36598;46.054;11.130;2023-04-04T04:58:57;99053.72;;;8.45;20.55
50636;BME280;36598;46.054;11.130;2023-04-04T05:01:22;99049.88;;;8.21;20.82
50636;BME280;36598;46.054;11.130;2023-04-04T05:03:47;99053.00;;;8.27;21.02
50636;BME280;36598;46.054;11.130;2023-04-04T05:06:12;99054.16;;;8.29;21.50
50636;BME280;36598;46.054;11.130;2023-04-04T05:08:38;99060.44;;;8.30;20.86
50636;BME280;36598;46.054;11.130;2023-04-04T05:11:03;99051.50;;;8.12;21.06
50636;BME280;36598;46.054;11.130;2023-04-04T05:13:28;99051.09;;;8.13;21.21
50636;BME280;36598;46.054;11.130;2023-04-04T05:15:54;99057.78;;;8.19;21.72
50636;BME280;36598;46.054;11.130;2023-04-04T05:18:19;99057.25;;;8.46;21.05
50636;BME280;36598;46.054;11.130;2023-04-04T05:20:49;99053.00;;;8.27;21.49
50636;BME280;36598;46.054;11.130;2023-04-04T05:23:17;99063.59;;;8.36;21.90
50636;BME280;36598;46.054;11.130;2023-04-04T05:25:42;99067.94;;;8.29;21.67
50636;BME280;36598;46.054;11.130;2023-04-04T05:28:07;99060.09;;;8.24;21.31
50636;BME280;36598;46.054;11.130;2023-04-04T05:30:33;99068.28;;;8.42;22.03
50636;BME280;36598;46.054;11.130;2023-04-04T05:32:58;99072.25;;;8.31;21.54
50636;BME280;36598;46.054;11.130;2023-04-04T05:35:23;99073.03;;;8.42;21.98
50636;BME280;36598;46.054;11.130;2023-04-04T05:37:50;99080.16;;;8.32;22.03
50636;BME280;36598;46.054;11.130;2023-04-04T05:40:15;99078.75;;;8.69;22.01
50636;BME280;36598;46.054;11.130;2023-04-04T05:42:40;99085.59;;;8.50;22.05
50636;BME280;36598;46.054;11.130;2023-04-04T05:45:06;99082.72;;;8.68;22.06
50636;BME280;36598;46.054;11.130;2023-04-04T05:47:32;99081.28;;;8.35;22.43
50636;BME280;36598;46.054;11.130;2023-04-04T05:49:57;99089.41;;;8.67;22.31
50636;BME280;36598;46.054;11.130;2023-04-04T05:52:22;99082.69;;;8.71;22.48
50636;BME280;36598;46.054;11.130;2023-04-04T05:54:47;99093.75;;;8.64;22.43
50636;BME280;36598;46.054;11.130;2023-04-04T05:57:13;99087.56;;;8.46;23.03
50636;BME280;36598;46.054;11.130;2023-04-04T05:59:38;99096.16;;;8.62;22.50
50636;BME280;36598;46.054;11.130;2023-04-04T06:02:03;99090.31;;;8.53;23.25
50636;BME280;36598;46.054;11.130;2023-04-04T06:04:29;99086.81;;;8.42;23.41
50636;BME280;36598;46.054;11.130;2023-04-04T06:06:54;99101.03;;;8.29;24.21
50636;BME280;36598;46.054;11.130;2023-04-04T06:09:19;99095.41;;;8.51;23.57
50636;BME280;36598;46.054;11.130;2023-04-04T06:11:45;99099.84;;;8.38;23.24
50636;BME280;36598;46.054;11.130;2023-04-04T06:14:10;99094.13;;;7.86;23.33
50636;BME280;36598;46.054;11.130;2023-04-04T06:16:35;99099.19;;;8.05;23.35
50636;BME280;36598;46.054;11.130;2023-04-04T06:19:01;99090.06;;;8.22;23.14
50636;BME280;36598;46.054;11.130;2023-04-04T06:21:26;99099.81;;;8.45;23.33
50636;BME280;36598;46.054;11.130;2023-04-04T06:23:52;99104.59;;;8.96;21.91
50636;BME280;36598;46.054;11.130;2023-04-04T06:26:17;99081.03;;;12.56;18.49
50636;BME280;36598;46.054;11.130;2023-04-04T06:28:49;99088.00;;;14.04;16.82
50636;BME280;36598;46.054;11.130;2023-04-04T06:31:15;99077.19;;;15.94;15.53
50636;BME280;36598;46.054;11.130;2023-04-04T06:33:40;99082.00;;;17.18;14.35
50636;BME280;36598;46.054;11.130;2023-04-04T06:36:06;99067.88;;;19.07;12.76
50636;BME280;36598;46.054;11.130;2023-04-04T06:38:31;99067.22;;;19.36;12.16
50636;BME280;36598;46.054;11.130;2023-04-04T06:40:57;99076.94;;;21.42;11.08
50636;BME280;36598;46.054;11.130;2023-04-04T06:43:22;99059.94;;;21.78;10.57
50636;BME280;36598;46.054;11.130;2023-04-04T06:45:48;99061.41;;;21.12;11.83
50636;BME280;36598;46.054;11.130;2023-04-04T06:48:13;99062.06;;;23.46;10.29
50636;BME280;36598;46.054;11.130;2023-04-04T06:50:38;99056.44;;;22.35;11.00
50636;BME280;36598;46.054;11.130;2023-04-04T06:53:04;99060.75;;;22.30;10.20
50636;BME280;36598;46.054;11.130;2023-04-04T06:55:31;99059.41;;;23.26;9.24
50636;BME280;36598;46.054;11.130;2023-04-04T06:57:56;99052.06;;;22.65;9.29
50636;BME280;36598;46.054;11.130;2023-04-04T07:00:22;99063.59;;;22.62;9.07
50636;BME280;36598;46.054;11.130;2023-04-04T07:02:47;99052.03;;;22.91;9.10
50636;BME280;36598;46.054;11.130;2023-04-04T07:05:13;99062.19;;;23.69;8.81
50636;BME280;36598;46.054;11.130;2023-04-04T07:07:41;99046.03;;;23.21;8.98
50636;BME280;36598;46.054;11.130;2023-04-04T07:10:07;99045.66;;;22.33;8.95
50636;BME280;36598;46.054;11.130;2023-04-04T07:12:32;99040.81;;;23.57;8.59
50636;BME280;36598;46.054;11.130;2023-04-04T07:14:57;99051.22;;;22.91;8.75
50636;BME280;36598;46.054;11.130;2023-04-04T07:17:23;99050.00;;;23.46;8.59
50636;BME280;36598;46.054;11.130;2023-04-04T07:19:49;99038.31;;;25.33;7.73
50636;BME280;36598;46.054;11.130;2023-04-04T07:22:14;99044.00;;;23.98;8.11
50636;BME280;36598;46.054;11.130;2023-04-04T07:24:39;99026.84;;;24.24;7.87
50636;BME280;36598;46.054;11.130;2023-04-04T07:27:06;99026.84;;;24.41;8.29
50636;BME280;36598;46.054;11.130;2023-04-04T07:29:31;99030.22;;;22.60;9.18
50636;BME280;36598;46.054;11.130;2023-04-04T07:31:56;99025.34;;;25.54;7.41
50636;BME280;36598;46.054;11.130;2023-04-04T07:34:22;99006.03;;;24.72;7.57
50636;BME280;36598;46.054;11.130;2023-04-04T07:36:47;99006.53;;;24.54;7.40
50636;BME280;36598;46.054;11.130;2023-04-04T07:39:13;99010.09;;;24.88;7.66
50636;BME280;36598;46.054;11.130;2023-04-04T07:41:38;99022.22;;;24.21;7.17
50636;BME280;36598;46.054;11.130;2023-04-04T07:44:03;99023.97;;;23.90;6.97
50636;BME280;36598;46.054;11.130;2023-04-04T07:46:28;99014.94;;;23.81;7.84
50636;BME280;36598;46.054;11.130;2023-04-04T07:48:54;99022.25;;;24.55;7.77
50636;BME280;36598;46.054;11.130;2023-04-04T07:51:19;99024.78;;;23.26;7.95
50636;BME280;36598;46.054;11.130;2023-04-04T07:53:52;99015.78;;;24.77;8.00
50636;BME280;36598;46.054;11.130;2023-04-04T07:56:17;99005.81;;;26.88;7.16
50636;BME280;36598;46.054;11.130;2023-04-04T07:58:42;99002.47;;;25.93;7.65
50636;BME280;36598;46.054;11.130;2023-04-04T08:01:08;99000.06;;;26.03;6.68
50636;BME280;36598;46.054;11.130;2023-04-04T08:03:33;99007.28;;;24.77;7.45
50636;BME280;36598;46.054;11.130;2023-04-04T08:05:58;98991.34;;;25.54;7.33
50636;BME280;36598;46.054;11.130;2023-04-04T08:08:24;98991.25;;;25.77;7.19
50636;BME280;36598;46.054;11.130;2023-04-04T08:10:49;98992.41;;;24.59;7.47
50636;BME280;36598;46.054;11.130;2023-04-04T08:13:14;99002.38;;;23.11;7.78
50636;BME280;36598;46.054;11.130;2023-04-04T08:15:39;99005.63;;;23.58;7.61
50636;BME280;36598;46.054;11.130;2023-04-04T08:18:05;98997.56;;;23.22;7.52
50636;BME280;36598;46.054;11.130;2023-04-04T08:20:30;98987.50;;;24.09;7.45
50636;BME280;36598;46.054;11.130;2023-04-04T08:22:56;98979.44;;;25.03;7.51
50636;BME280;36598;46.054;11.130;2023-04-04T08:25:22;98983.38;;;24.66;7.30
50636;BME280;36598;46.054;11.130;2023-04-04T08:27:48;98984.03;;;25.23;7.59
50636;BME280;36598;46.054;11.130;2023-04-04T08:30:13;98989.06;;;24.44;7.81
50636;BME280;36598;46.054;11.130;2023-04-04T08:32:41;98980.53;;;24.78;7.78
50636;BME280;36598;46.054;11.130;2023-04-04T08:35:06;98980.13;;;25.84;6.51
50636;BME280;36598;46.054;11.130;2023-04-04T08:37:32;98969.53;;;25.85;6.95
50636;BME280;36598;46.054;11.130;2023-04-04T08:39:59;98966.81;;;23.36;7.84
50636;BME280;36598;46.054;11.130;2023-04-04T08:42:25;98962.22;;;24.95;6.84
50636;BME280;36598;46.054;11.130;2023-04-04T08:44:52;98956.91;;;24.64;7.70
50636;BME280;36598;46.054;11.130;2023-04-04T08:47:19;98951.25;;;23.80;7.54
50636;BME280;36598;46.054;11.130;2023-04-04T08:49:48;98950.66;;;24.88;7.25
50636;BME280;36598;46.054;11.130;2023-04-04T08:52:15;98957.94;;;24.49;7.42
50636;BME280;36598;46.054;11.130;2023-04-04T08:54:43;98952.53;;;24.68;7.07
50636;BME280;36598;46.054;11.130;2023-04-04T08:57:08;98947.38;;;23.60;8.00
50636;BME280;36598;46.054;11.130;2023-04-04T08:59:34;98962.16;;;23.21;8.04
50636;BME280;36598;46.054;11.130;2023-04-04T09:02:01;98942.28;;;23.87;7.71
50636;BME280;36598;46.054;11.130;2023-04-04T09:04:28;98941.25;;;23.79;7.84
50636;BME280;36598;46.054;11.130;2023-04-04T09:06:53;98945.59;;;23.80;7.71
50636;BME280;36598;46.054;11.130;2023-04-04T09:09:19;98932.47;;;22.89;7.88
50636;BME280;36598;46.054;11.130;2023-04-04T09:11:45;98927.38;;;23.81;7.96
50636;BME280;36598;46.054;11.130;2023-04-04T09:14:12;98927.03;;;23.45;7.38
50636;BME280;36598;46.054;11.130;2023-04-04T09:16:37;98923.28;;;22.51;8.03
50636;BME280;36598;46.054;11.130;2023-04-04T09:19:03;98924.69;;;22.30;8.68
50636;BME280;36598;46.054;11.130;2023-04-04T09:21:31;98925.84;;;20.52;8.45
50636;BME280;36598;46.054;11.130;2023-04-04T09:23:57;98924.41;;;19.92;9.35
50636;BME280;36598;46.054;11.130;2023-04-04T09:26:24;98926.06;;;20.48;9.03
50636;BME280;36598;46.054;11.130;2023-04-04T09:28:52;98924.47;;;20.83;9.18
50636;BME280;36598;46.054;11.130;2023-04-04T09:31:18;98917.50;;;20.78;8.72
50636;BME280;36598;46.054;11.130;2023-04-04T09:33:43;98911.91;;;20.43;9.44
50636;BME280;36598;46.054;11.130;2023-04-04T09:36:12;98911.91;;;19.78;9.75
50636;BME280;36598;46.054;11.130;2023-04-04T09:38:38;98909.47;;;19.86;9.90
50636;BME280;36598;46.054;11.130;2023-04-04T09:41:07;98904.16;;;19.88;9.97
50636;BME280;36598;46.054;11.130;2023-04-04T09:43:35;98897.47;;;19.41;10.08
50636;BME280;36598;46.054;11.130;2023-04-04T09:46:01;98901.75;;;19.81;10.01
50636;BME280;36598;46.054;11.130;2023-04-04T09:48:29;98888.50;;;18.98;9.78
50636;BME280;36598;46.054;11.130;2023-04-04T09:50:56;98888.59;;;19.04;9.56
50636;BME280;36598;46.054;11.130;2023-04-04T09:53:25;98879.63;;;19.14;9.56
50636;BME280;36598;46.054;11.130;2023-04-04T09:55:52;98876.34;;;19.16;8.94
50636;BME280;36598;46.054;11.130;2023-04-04T09:58:18;98873.66;;;19.51;9.15
50636;BME280;36598;46.054;11.130;2023-04-04T10:00:46;98866.09;;;19.87;9.09
50636;BME280;36598;46.054;11.130;2023-04-04T10:03:15;98861.88;;;19.62;8.81
50636;BME280;36598;46.054;11.130;2023-04-04T10:05:43;98867.47;;;19.47;8.83
50636;BME280;36598;46.054;11.130;2023-04-04T10:08:27;98868.06;;;19.36;8.19
50636;BME280;36598;46.054;11.130;2023-04-04T10:10:57;98844.81;;;19.65;8.38
50636;BME280;36598;46.054;11.130;2023-04-04T10:15:48;98851.91;;;19.75;8.76
50636;BME280;36598;46.054;11.130;2023-04-04T10:18:14;98840.59;;;19.70;9.26
50636;BME280;36598;46.054;11.130;2023-04-04T10:20:39;98860.41;;;19.96;8.89
50636;BME280;36598;46.054;11.130;2023-04-04T10:23:06;98836.03;;;20.43;8.79
50636;BME280;36598;46.054;11.130;2023-04-04T10:25:31;98833.91;;;20.17;8.69
50636;BME280;36598;46.054;11.130;2023-04-04T10:27:57;98836.03;;;19.58;8.25
50636;BME280;36598;46.054;11.130;2023-04-04T10:30:22;98834.75;;;19.73;8.53
50636;BME280;36598;46.054;11.130;2023-04-04T10:33:00;98819.66;;;19.56;8.74
50636;BME280;36598;46.054;11.130;2023-04-04T10:35:30;98824.47;;;20.00;8.45
50636;BME280;36598;46.054;11.130;2023-04-04T10:37:57;98820.13;;;19.40;8.10
50636;BME280;36598;46.054;11.130;2023-04-04T10:40:23;98819.19;;;19.43;8.54
50636;BME280;36598;46.054;11.130;2023-04-04T10:42:50;98814.72;;;19.81;8.89
50636;BME280;36598;46.054;11.130;2023-04-04T10:45:16;98819.00;;;20.11;8.86
50636;BME280;36598;46.054;11.130;2023-04-04T10:47:41;98802.41;;;19.93;8.36
50636;BME280;36598;46.054;11.130;2023-04-04T10:50:07;98818.38;;;19.87;8.65
50636;BME280;36598;46.054;11.130;2023-04-04T10:52:36;98816.56;;;19.69;8.53
50636;BME280;36598;46.054;11.130;2023-04-04T10:55:03;98810.13;;;19.98;8.63
50636;BME280;36598;46.054;11.130;2023-04-04T10:57:30;98813.31;;;19.91;8.26
50636;BME280;36598;46.054;11.130;2023-04-04T10:59:57;98805.25;;;20.13;8.81
50636;BME280;36598;46.054;11.130;2023-04-04T11:05:11;98800.28;;;20.08;8.69
50636;BME280;36598;46.054;11.130;2023-04-04T11:07:36;98788.94;;;19.97;8.55
50636;BME280;36598;46.054;11.130;2023-04-04T11:10:12;98789.53;;;20.21;8.39
50636;BME280;36598;46.054;11.130;2023-04-04T11:12:40;98790.41;;;20.33;9.50
50636;BME280;36598;46.054;11.130;2023-04-04T11:15:09;98787.28;;;20.66;9.22
50636;BME280;36598;46.054;11.130;2023-04-04T11:20:11;98776.66;;;20.35;8.96
50636;BME280;36598;46.054;11.130;2023-04-04T11:22:40;98789.81;;;20.44;11.84
50636;BME280;36598;46.054;11.130;2023-04-04T11:27:54;98769.28;;;19.97;8.92
50636;BME280;36598;46.054;11.130;2023-04-04T11:30:23;98781.34;;;19.68;9.30
50636;BME280;36598;46.054;11.130;2023-04-04T11:32:49;98765.44;;;19.80;10.77
50636;BME280;36598;46.054;11.130;2023-04-04T11:35:15;98766.03;;;19.84;10.05
50636;BME280;36598;46.054;11.130;2023-04-04T11:40:16;98753.28;;;20.23;10.18
50636;BME280;36598;46.054;11.130;2023-04-04T11:42:41;98755.97;;;19.77;11.48
50636;BME280;36598;46.054;11.130;2023-04-04T11:45:07;98752.78;;;19.69;11.73
50636;BME280;36598;46.054;11.130;2023-04-04T11:47:34;98750.81;;;19.25;12.10
50636;BME280;36598;46.054;11.130;2023-04-04T11:50:00;98757.25;;;19.46;12.02
50636;BME280;36598;46.054;11.130;2023-04-04T11:52:30;98751.03;;;19.72;10.91
50636;BME280;36598;46.054;11.130;2023-04-04T11:54:56;98751.94;;;20.19;11.13
50636;BME280;36598;46.054;11.130;2023-04-04T11:57:21;98752.34;;;20.12;12.29
50636;BME280;36598;46.054;11.130;2023-04-04T11:59:47;98738.88;;;20.16;11.53
50636;BME280;36598;46.054;11.130;2023-04-04T12:02:15;98743.56;;;20.04;11.07
50636;BME280;36598;46.054;11.130;2023-04-04T12:04:40;98728.25;;;20.25;10.36
50636;BME280;36598;46.054;11.130;2023-04-04T12:07:09;98740.13;;;20.15;11.04
50636;BME280;36598;46.054;11.130;2023-04-04T12:09:35;98738.50;;;19.88;10.63
50636;BME280;36598;46.054;11.130;2023-04-04T12:12:01;98729.28;;;19.52;10.95
50636;BME280;36598;46.054;11.130;2023-04-04T12:14:27;98730.34;;;19.55;11.12
50636;BME280;36598;46.054;11.130;2023-04-04T12:16:53;98726.56;;;19.72;10.90
50636;BME280;36598;46.054;11.130;2023-04-04T12:19:21;98722.47;;;19.09;10.32
50636;BME280;36598;46.054;11.130;2023-04-04T12:21:47;98716.19;;;19.29;10.28
50636;BME280;36598;46.054;11.130;2023-04-04T12:24:13;98723.91;;;19.34;10.92
50636;BME280;36598;46.054;11.130;2023-04-04T12:26:39;98727.97;;;19.33;10.42
50636;BME280;36598;46.054;11.130;2023-04-04T12:29:05;98722.06;;;19.31;10.79
50636;BME280;36598;46.054;11.130;2023-04-04T12:31:31;98717.75;;;19.15;11.59
50636;BME280;36598;46.054;11.130;2023-04-04T12:33:57;98710.19;;;19.36;12.18
50636;BME280;36598;46.054;11.130;2023-04-04T12:36:36;98708.50;;;19.44;11.63
50636;BME280;36598;46.054;11.130;2023-04-04T12:39:04;98704.72;;;19.62;10.66
50636;BME280;36598;46.054;11.130;2023-04-04T12:41:31;98700.25;;;19.70;10.65
50636;BME280;36598;46.054;11.130;2023-04-04T12:44:00;98701.78;;;19.56;11.10
50636;BME280;36598;46.054;11.130;2023-04-04T12:46:26;98693.25;;;19.80;11.13
50636;BME280;36598;46.054;11.130;2023-04-04T12:48:52;98693.66;;;19.58;11.39
50636;BME280;36598;46.054;11.130;2023-04-04T12:51:18;98694.59;;;19.35;11.97
50636;BME280;36598;46.054;11.130;2023-04-04T12:53:50;98684.88;;;19.50;12.24
50636;BME280;36598;46.054;11.130;2023-04-04T12:56:20;98694.56;;;19.49;12.73
50636;BME280;36598;46.054;11.130;2023-04-04T12:58:49;98682.53;;;19.29;12.24
50636;BME280;36598;46.054;11.130;2023-04-04T13:01:15;98682.91;;;19.57;12.14
50636;BME280;36598;46.054;11.130;2023-04-04T13:03:43;98676.47;;;19.50;11.65
50636;BME280;36598;46.054;11.130;2023-04-04T13:06:16;98675.59;;;19.09;12.11
50636;BME280;36598;46.054;11.130;2023-04-04T13:08:53;98679.06;;;19.19;12.59
50636;BME280;36598;46.054;11.130;2023-04-04T13:11:19;98681.75;;;19.13;10.98
50636;BME280;36598;46.054;11.130;2023-04-04T13:13:44;98679.41;;;19.26;11.97